Hamilton, Ohio
Current Conditions -  °F | °C
As of 7:53 AM on Sunday 23 Nov 2014 (Local Time) from KHAO Reporting Station
Scattered Clouds Scattered Clouds  
Wind Chill: 44°   Ceiling: Unl
Heat Index: 44°   Visibility: 10mi
Dew Point: 37°   Wind: 3mph
Humidity: 76%   Direction: 110°ESE
Pressure: 29.99"   Gusts: NA
Location:  39.4°N, 84.56°W
Report Text: KHAO 231253Z AUTO 11003KT 10SM SCT080 07/03 A2999 RMK AO2 SLP158 T00670028
Loading
Personal Weather Stations






























Interactive Weather Map New forecast layout! Learn more

10-Day Weather Forecast

Advertisements
Track Severe Weather on mobile